PAHO

Homer Airport

Airport
ICAO code
PAHO
Summary
ICAO Region
NAM
ICAO Territory
Location

Homer,

Coordinates
59° 38' 44" N , 151° 28' 35" W
KCC
Airport BS
Bird Strike
Non Avian Wildlife Hazards to Aircraft
Airport CFIT
Altimeter Temperature Error Correction
Metar
PAHO 180053Z 26009KT 10SM CLR 10/04 A3012 RMK AO2 SLP200 T01000039

Description

Regional airport serving Homer, Alaska.

Climatology

Cool continental climate/Subarctic climate (Köppen climate classification Dfc)

Runways

Designator Length Width Surface Rops
3/21 2042 46 ASP Yes/Yes

Airport map

Aerial View

SKYbrary Partners:

Safety knowledge contributed by: